createdAt,value
2023-01-09T05:54:49.223Z,6.76
2023-01-09T05:57:52.276Z,6.79
2023-01-09T06:00:55.305Z,6.84
2023-01-09T06:03:58.323Z,6.91
2023-01-09T06:07:01.028Z,6.81
2023-01-09T06:10:04.392Z,6.82
2023-01-09T06:13:07.122Z,6.61
2023-01-09T06:16:10.360Z,6.53
2023-01-09T06:19:13.446Z,6.51
2023-01-09T06:22:16.747Z,6.47
2023-01-09T06:25:20.299Z,6.42
2023-01-09T06:28:23.604Z,6.37
2023-01-09T06:31:26.773Z,6.37
2023-01-09T06:34:29.927Z,6.31
2023-01-09T06:37:33.390Z,6.29
2023-01-09T06:40:36.378Z,6.25
2023-01-09T06:43:39.546Z,6.21
2023-01-09T06:46:42.638Z,6.17
2023-01-09T06:49:45.386Z,6.17
2023-01-09T06:52:48.418Z,6.18
2023-01-09T06:55:51.296Z,6.15
2023-01-09T06:58:54.325Z,6.14
2023-01-09T07:01:57.165Z,6.08
2023-01-09T07:05:00.814Z,6.03
2023-01-09T07:08:03.811Z,6.03
2023-01-09T07:11:06.836Z,6.06
2023-01-09T07:14:09.668Z,6.06
2023-01-09T07:17:13.739Z,6.07
2023-01-09T07:20:16.774Z,6.06
2023-01-09T07:23:19.847Z,6.07
2023-01-09T07:26:22.783Z,6.07
2023-01-09T07:29:25.703Z,6.06
2023-01-09T07:32:28.474Z,5.95
2023-01-09T07:35:31.453Z,5.92
2023-01-09T07:38:35.577Z,5.84
2023-01-09T07:41:40.681Z,5.83
2023-01-09T07:44:45.445Z,5.82
2023-01-09T07:47:48.520Z,5.80
2023-01-09T07:50:51.452Z,5.83
2023-01-09T07:53:55.268Z,5.74
2023-01-09T07:56:58.079Z,5.67
2023-01-09T08:00:03.439Z,5.66
2023-01-09T08:03:14.133Z,5.66
2023-01-09T08:06:17.118Z,5.58
2023-01-09T08:09:20.146Z,5.58
2023-01-09T08:12:23.121Z,5.61
2023-01-09T08:15:25.798Z,5.77
2023-01-09T08:18:28.825Z,5.61
2023-01-09T08:21:31.699Z,5.65
2023-01-09T08:24:36.679Z,5.64
2023-01-09T08:27:39.461Z,5.61
2023-01-09T08:30:42.473Z,5.59
2023-01-09T08:33:45.742Z,5.53
2023-01-09T08:36:49.004Z,5.56
2023-01-09T08:39:51.671Z,5.59
2023-01-09T08:43:13.282Z,5.53
2023-01-09T08:46:40.184Z,5.56
2023-01-09T08:49:43.304Z,5.56
2023-01-09T08:52:46.046Z,5.50
2023-01-09T08:55:49.089Z,5.52
2023-01-09T08:58:51.990Z,5.53
2023-01-09T09:01:55.220Z,5.56
2023-01-09T09:04:59.416Z,5.68
2023-01-09T09:08:03.680Z,5.74
2023-01-09T09:11:06.639Z,5.58
2023-01-09T09:14:28.153Z,5.62
2023-01-09T09:17:32.700Z,5.56
2023-01-09T09:20:38.309Z,5.70
2023-01-09T09:23:40.956Z,5.69
2023-01-09T09:26:44.750Z,5.54
2023-01-09T09:29:47.744Z,5.48
2023-01-09T09:32:50.983Z,5.37
2023-01-09T09:35:53.600Z,5.31
2023-01-09T09:38:56.974Z,5.29
2023-01-09T09:42:30.533Z,5.30
2023-01-09T09:45:39.466Z,5.36
2023-01-09T09:48:52.208Z,5.19
2023-01-09T09:52:09.641Z,5.09
2023-01-09T09:55:21.072Z,5.12
2023-01-09T09:58:48.355Z,5.04
2023-01-09T10:02:26.439Z,5.03
2023-01-09T10:05:36.968Z,5.01
2023-01-09T10:08:52.556Z,4.99
2023-01-09T10:12:08.834Z,5.22
2023-01-09T10:15:24.229Z,5.17
2023-01-09T10:18:31.754Z,5.31
2023-01-09T10:22:06.710Z,5.26
2023-01-09T10:25:40.779Z,5.19
2023-01-09T10:28:43.714Z,5.24
2023-01-09T10:31:49.467Z,5.35
2023-01-09T10:35:07.384Z,5.35
2023-01-09T10:38:13.748Z,5.10
2023-01-09T10:41:25.260Z,5.27
2023-01-09T10:44:40.033Z,5.50
2023-01-09T10:47:44.379Z,5.14
2023-01-09T10:50:50.352Z,5.21
2023-01-09T10:53:55.599Z,5.31
2023-01-09T10:57:13.164Z,5.34
2023-01-09T11:00:24.313Z,5.26
2023-01-09T11:03:28.490Z,5.22
2023-01-09T11:06:47.815Z,5.22
2023-01-09T11:10:01.474Z,5.26
2023-01-09T11:13:18.800Z,5.24
2023-01-09T11:16:23.642Z,5.14
2023-01-09T11:19:27.529Z,5.06
2023-01-09T11:22:43.313Z,5.21
2023-01-09T11:25:56.354Z,5.21
2023-01-09T11:29:16.804Z,5.26
2023-01-09T11:32:24.514Z,5.24
2023-01-09T11:35:33.106Z,5.38
2023-01-09T11:39:00.932Z,5.29
2023-01-09T11:42:06.571Z,5.45
2023-01-09T11:45:41.397Z,5.50
2023-01-09T11:48:57.114Z,5.52
2023-01-09T11:52:20.989Z,5.24
2023-01-09T11:55:29.358Z,5.37
2023-01-09T11:58:35.876Z,5.51
2023-01-09T12:01:53.265Z,5.57
2023-01-09T12:05:20.402Z,5.54
2023-01-09T12:08:48.016Z,5.66
2023-01-09T12:12:01.492Z,5.77
2023-01-09T12:15:28.579Z,5.99
2023-01-09T12:19:00.632Z,5.77
2023-01-09T12:22:18.666Z,5.92
2023-01-09T12:25:50.413Z,5.55
2023-01-09T12:29:25.631Z,5.67
2023-01-09T12:32:34.974Z,5.61
2023-01-09T12:35:54.999Z,5.55
2023-01-09T12:39:27.497Z,5.67
2023-01-09T12:43:01.666Z,5.63
2023-01-09T12:46:18.528Z,5.70
2023-01-09T12:49:35.064Z,5.87
2023-01-09T12:52:49.224Z,5.94
2023-01-09T12:56:08.171Z,5.88
2023-01-09T12:59:36.903Z,5.76
2023-01-09T13:02:44.249Z,5.60
2023-01-09T13:05:50.585Z,5.79
2023-01-09T13:09:09.266Z,5.75
2023-01-09T13:12:15.303Z,5.84
2023-01-09T13:15:37.673Z,5.84
2023-01-09T13:19:18.626Z,5.82
2023-01-09T13:22:25.584Z,5.77
2023-01-09T13:25:35.220Z,5.87
2023-01-09T13:28:50.873Z,5.74
2023-01-09T13:32:12.435Z,5.80
2023-01-09T13:35:16.279Z,5.71
2023-01-09T13:38:22.798Z,5.87
2023-01-09T13:41:45.898Z,5.88
2023-01-09T13:44:53.832Z,5.92
2023-01-09T13:48:09.066Z,5.90
2023-01-09T13:51:43.162Z,5.90
2023-01-09T13:55:01.085Z,5.75
2023-01-09T13:58:04.477Z,5.84
2023-01-09T14:01:35.382Z,5.64
2023-01-09T14:04:43.399Z,5.83
2023-01-09T14:07:49.322Z,5.82
2023-01-09T14:10:57.822Z,5.70
2023-01-09T14:14:04.244Z,5.65
2023-01-09T14:17:17.881Z,5.49
2023-01-09T14:20:28.491Z,5.48
2023-01-09T14:23:51.590Z,5.54
2023-01-09T14:27:00.473Z,5.57
2023-01-09T14:30:37.704Z,5.57
2023-01-09T14:33:40.795Z,5.56
2023-01-09T14:36:44.682Z,5.59
2023-01-09T14:39:50.671Z,5.62
2023-01-09T14:42:58.194Z,5.60
2023-01-09T14:46:05.068Z,5.59
2023-01-09T14:49:17.968Z,5.63
2023-01-09T14:52:23.804Z,5.65
2023-01-09T15:58:34.712Z,5.57
2023-01-09T16:01:41.703Z,5.64
2023-01-09T16:04:44.899Z,5.54
2023-01-09T16:07:49.627Z,5.58
2023-01-09T16:10:56.268Z,5.48
2023-01-09T16:14:34.614Z,5.58
2023-01-09T16:17:37.773Z,5.47
2023-01-09T16:20:40.795Z,5.46
2023-01-09T16:23:54.905Z,5.59
2023-01-09T16:27:23.877Z,5.44
2023-01-09T16:30:27.928Z,5.49
2023-01-09T16:33:32.199Z,5.57
2023-01-09T16:36:36.192Z,5.61
2023-01-09T16:39:39.054Z,5.66
2023-01-09T16:43:03.376Z,5.90
2023-01-09T16:46:06.203Z,5.88
2023-01-09T16:49:16.591Z,5.86
2023-01-09T16:52:19.579Z,5.53
2023-01-09T16:55:22.522Z,5.58
2023-01-09T16:58:29.126Z,5.87
2023-01-09T17:01:32.432Z,5.59
2023-01-09T17:04:35.307Z,5.79
2023-01-09T17:07:38.784Z,5.81
2023-01-09T17:10:41.499Z,5.55
2023-01-09T17:13:44.643Z,5.44
2023-01-09T17:16:47.581Z,5.47
2023-01-09T17:19:50.867Z,5.39
2023-01-09T17:22:53.551Z,5.41
2023-01-09T17:26:17.711Z,5.38
2023-01-09T17:29:20.783Z,5.43
2023-01-09T17:32:23.781Z,5.45
2023-01-09T17:35:26.476Z,5.44
2023-01-09T17:38:29.780Z,5.50
2023-01-09T17:41:33.549Z,5.50
2023-01-09T17:44:36.782Z,5.53
2023-01-09T17:47:39.543Z,5.54
2023-01-09T17:50:43.334Z,5.57
2023-01-09T17:53:46.098Z,5.62
2023-01-09T17:56:51.180Z,5.54
2023-01-09T17:59:53.987Z,5.51
2023-01-09T18:02:57.408Z,5.51
2023-01-09T18:06:00.771Z,5.53
2023-01-09T18:09:07.696Z,5.50
2023-01-09T18:12:11.204Z,5.52
2023-01-09T18:15:14.222Z,5.57
2023-01-09T18:18:17.389Z,5.59
2023-01-09T18:21:23.365Z,5.57
2023-01-09T18:24:27.156Z,5.57
2023-01-09T18:27:29.944Z,5.56
2023-01-09T18:30:33.617Z,5.57
2023-01-09T18:33:36.522Z,5.58
2023-01-09T18:36:39.607Z,5.57
2023-01-09T18:39:42.535Z,5.63
2023-01-09T18:42:47.173Z,5.65
2023-01-09T18:45:49.887Z,5.63
2023-01-09T18:48:57.187Z,5.66
2023-01-09T18:52:00.166Z,5.59
2023-01-09T18:55:04.257Z,5.54
2023-01-09T18:58:07.672Z,5.48
2023-01-09T19:01:11.022Z,5.57
2023-01-09T19:04:14.395Z,5.58
2023-01-09T19:07:17.885Z,5.60
2023-01-09T19:10:21.354Z,5.60
2023-01-09T19:13:28.721Z,5.56
2023-01-09T19:16:31.700Z,5.58
2023-01-09T19:19:35.305Z,5.55
2023-01-09T19:22:38.376Z,5.57
2023-01-09T19:25:41.826Z,5.60
2023-01-09T19:28:45.451Z,5.63
2023-01-09T19:31:48.971Z,5.63
2023-01-09T19:34:52.254Z,5.63
2023-01-09T19:37:55.420Z,5.63
2023-01-09T19:41:09.042Z,5.58
2023-01-09T19:44:12.406Z,5.52
2023-01-09T19:47:15.283Z,5.60
2023-01-09T19:50:19.021Z,5.58
2023-01-09T19:53:21.779Z,5.60
2023-01-09T19:56:28.427Z,5.58
2023-01-09T19:59:31.824Z,5.61
2023-01-09T20:02:34.874Z,5.52
2023-01-09T20:05:37.904Z,5.56
2023-01-09T20:08:42.649Z,5.58
2023-01-09T20:11:46.069Z,5.54
2023-01-09T20:14:49.794Z,5.63
2023-01-09T20:17:53.762Z,5.59
2023-01-09T20:20:57.309Z,5.55
2023-01-09T20:24:02.350Z,5.57
2023-01-09T20:27:06.051Z,5.64
2023-01-09T20:30:09.722Z,5.64
2023-01-09T20:33:13.301Z,5.57
2023-01-09T20:36:16.754Z,5.56
2023-01-09T20:39:19.550Z,5.58
2023-01-09T20:42:24.470Z,5.60
2023-01-09T20:45:27.344Z,5.58
2023-01-09T20:48:40.760Z,5.57
2023-01-09T20:51:46.768Z,5.57
2023-01-09T20:54:49.820Z,5.60
2023-01-09T20:57:52.585Z,5.62
2023-01-09T21:00:56.075Z,5.60
2023-01-09T21:03:59.730Z,5.60
2023-01-09T21:07:05.943Z,5.57
2023-01-09T21:10:09.758Z,5.52
2023-01-09T21:13:13.804Z,5.50
2023-01-09T21:16:20.178Z,5.48
2023-01-09T21:19:23.406Z,5.54
2023-01-09T21:22:26.291Z,5.54
2023-01-09T21:25:29.567Z,5.50
2023-01-09T21:28:32.393Z,5.51
2023-01-09T21:31:35.872Z,5.54
2023-01-09T21:34:38.701Z,5.59
2023-01-09T21:37:41.809Z,5.57
2023-01-09T21:40:48.478Z,5.54
2023-01-09T21:44:10.422Z,5.44
2023-01-09T21:47:13.296Z,5.48
2023-01-09T21:50:17.498Z,5.49
2023-01-09T21:53:23.414Z,5.47
2023-01-09T21:56:26.384Z,5.50
2023-01-09T21:59:29.512Z,5.51
2023-01-09T22:02:33.040Z,5.45
2023-01-09T22:05:37.226Z,5.50
2023-01-09T22:08:40.355Z,5.50
2023-01-09T22:11:44.157Z,5.43
2023-01-09T22:14:47.337Z,5.38
2023-01-09T22:17:50.288Z,5.43
2023-01-09T22:20:52.967Z,5.35
2023-01-09T22:23:56.002Z,5.36
2023-01-09T22:26:58.872Z,5.39
2023-01-09T22:30:02.179Z,5.38
2023-01-09T22:33:07.359Z,5.42
2023-01-09T22:36:11.975Z,5.41
2023-01-09T22:39:17.114Z,5.47
2023-01-09T22:42:20.384Z,5.41
2023-01-09T22:45:24.775Z,5.42
2023-01-09T22:48:32.217Z,5.45
2023-01-09T22:51:35.007Z,5.42
2023-01-09T22:54:38.241Z,5.46
2023-01-09T22:57:41.143Z,5.54
2023-01-09T23:00:45.360Z,5.47
2023-01-09T23:03:48.769Z,5.37
2023-01-09T23:06:51.889Z,5.35
2023-01-09T23:10:00.511Z,5.37
2023-01-09T23:13:03.633Z,5.36
2023-01-09T23:16:07.310Z,5.38
2023-01-09T23:19:14.424Z,5.39
2023-01-09T23:22:17.791Z,5.32
2023-01-09T23:25:20.807Z,5.36
2023-01-09T23:28:24.829Z,5.38
2023-01-09T23:31:28.010Z,5.35
2023-01-09T23:34:30.913Z,5.30
2023-01-09T23:37:34.149Z,5.23
2023-01-09T23:40:37.716Z,5.34
2023-01-09T23:43:45.079Z,5.28
2023-01-09T23:46:48.013Z,5.25
2023-01-09T23:49:51.563Z,5.27
2023-01-09T23:52:54.414Z,5.31
2023-01-09T23:55:57.562Z,5.32
2023-01-09T23:59:02.197Z,5.31
